Wednesday, June 20, 2018, 3:36 AM EDT
Back to Local

KMIV, Millville Municipal Airport

Location: Millville, NJ, United States Lat: 39.367
Local Time: 3:36 AM EDT ( 7:36 GMT) Lon: -75.083
Time Zone: US/Eastern Elev: 85 ft

Show me the last for .
Show Coded

Time T Td Feel RH Dir Speed Gust Alt SLP Vis Weather Sky Remarks
2018-06-20 02:54 67 67 - 100 - Calm - 29.86 29.85 10 FEW065 None
2018-06-20 01:54 69 67 - 92 - Calm - 29.86 29.85 10 CLR 6-hr Min Temp (2am): 66.9°F
6-hr Max Temp (2am): 79.0°F
2018-06-20 00:54 67 66 - 96 - Calm - 29.86 29.85 8 CLR 24-hr Min Temp (1am): 66.9°F
24-hr Max Temp (1am): 88.0°F
2018-06-19 23:54 69 67 - 92 - Calm - 29.86 29.85 10 CLR None
2018-06-19 22:54 71 68 76 90 - Calm - 29.86 29.85 10 CLR None
2018-06-19 21:54 71 68 76 90 - Calm - 29.87 29.86 10 CLR None
2018-06-19 20:54 73 69 77 87 100° 5 - 29.84 29.84 10 CLR None
2018-06-19 19:54 79 69 82 71 120° 9 - 29.82 29.81 10 CLR 6-hr Min Temp (8pm): 79.0°F
6-hr Max Temp (8pm): 88.0°F
2018-06-19 18:54 87 61 88 41 20° 7 - 29.80 29.79 10 CLR None
2018-06-19 17:54 87 68 91 53 - Calm - 29.78 29.77 10 CLR None
2018-06-19 16:54 86 69 91 57 350° 9 - 29.80 29.79 10 CLR None
2018-06-19 15:54 85 68 89 57 320° 8 - 29.80 29.79 10 BKN065 BKN110 None
2018-06-19 14:54 86 71 92 61 320° 6 - 29.80 29.79 10 BKN075 None
2018-06-19 13:54 84 71 89 65 320° 7 - 29.82 29.81 10 OVC060 6-hr Min Temp (2pm): 80.1°F
6-hr Max Temp (2pm): 84.9°F
2018-06-19 12:54 83 71 88 67 330° 7 - 29.82 29.81 10 OVC065 None
2018-06-19 11:54 84 73 91 69 310° 8 - 29.82 29.81 10 FEW031 BKN050 OVC055 None
2018-06-19 10:54 84 73 91 69 330° 10 - 29.81 29.81 10 FEW025 SCT030 BKN047 None
2018-06-19 09:54 83 72 89 69 320° 10 - 29.81 29.80 10 CLR None
2018-06-19 08:54 82 72 87 71 320° 10 - 29.81 29.80 10 CLR None
2018-06-19 07:54 80 73 85 79 280° 5 - 29.81 29.80 10 CLR 1-hr Precip Total: Trace
6-hr Precip Total (8am): 0.00"
6-hr Min Temp (8am): 78.1°F
6-hr Max Temp (8am): 80.1°F
2018-06-19 06:54 78 73 83 84 280° 5 - 29.81 29.80 8 -RA FEW095 FEW120 1-hr Precip Total: Trace
2018-06-19 05:54 79 72 84 79 260° 6 - 29.80 29.79 9 CLR None
2018-06-19 04:54 80 72 85 76 280° 9 - 29.79 29.78 10 CLR None
2018-06-19 03:54 79 72 84 79 240° 5 - 29.78 29.77 10 CLR None

Support USWX by starting your Amazon purchase here.